createdAt,value
2022-10-05T00:00:17.085Z,1012.54
2022-10-05T00:01:17.001Z,1012.48
2022-10-05T00:02:17.054Z,1012.49
2022-10-05T00:03:17.630Z,1012.52
2022-10-05T00:04:16.901Z,1012.52
2022-10-05T00:05:16.855Z,1012.51
2022-10-05T00:06:16.839Z,1012.47
2022-10-05T00:07:16.810Z,1012.51
2022-10-05T00:08:17.653Z,1012.51
2022-10-05T00:09:16.902Z,1012.56
2022-10-05T00:10:16.787Z,1012.56
2022-10-05T00:11:17.875Z,1012.53
2022-10-05T00:12:16.865Z,1012.56
2022-10-05T00:13:16.824Z,1012.57
2022-10-05T00:14:16.822Z,1012.55
2022-10-05T00:15:16.727Z,1012.58
2022-10-05T00:16:16.732Z,1012.56
2022-10-05T00:17:16.728Z,1012.55
2022-10-05T00:18:17.637Z,1012.56
2022-10-05T00:19:16.764Z,1012.52
2022-10-05T00:20:16.654Z,1012.51
2022-10-05T00:21:16.804Z,1012.52
2022-10-05T00:22:16.656Z,1012.54
2022-10-05T00:23:16.605Z,1012.60
2022-10-05T00:24:16.584Z,1012.57
2022-10-05T00:25:16.588Z,1012.49
2022-10-05T00:26:17.515Z,1012.57
2022-10-05T00:27:16.595Z,1012.50
2022-10-05T00:28:17.845Z,1012.46
2022-10-05T00:29:16.539Z,1012.49
2022-10-05T00:30:16.507Z,1012.47
2022-10-05T00:31:16.544Z,1012.49
2022-10-05T00:32:16.534Z,1012.53
2022-10-05T00:33:16.497Z,1012.54
2022-10-05T00:34:16.740Z,1012.53
2022-10-05T00:35:16.465Z,1012.49
2022-10-05T00:36:16.459Z,1012.48
2022-10-05T00:37:16.479Z,1012.48
2022-10-05T00:38:16.818Z,1012.49
2022-10-05T00:39:16.546Z,1012.48
2022-10-05T00:40:16.489Z,1012.51
2022-10-05T00:41:16.431Z,1012.48
2022-10-05T00:42:16.499Z,1012.47
2022-10-05T00:43:16.358Z,1012.50
2022-10-05T00:44:16.354Z,1012.48
2022-10-05T00:45:16.320Z,1012.50
2022-10-05T00:46:16.428Z,1012.58
2022-10-05T00:47:17.488Z,1012.57
2022-10-05T00:48:16.399Z,1012.61
2022-10-05T00:49:16.250Z,1012.59
2022-10-05T00:50:16.240Z,1012.57
2022-10-05T00:51:16.260Z,1012.55
2022-10-05T00:52:16.390Z,1012.57
2022-10-05T00:53:16.210Z,1012.56
2022-10-05T00:54:18.492Z,1012.53
2022-10-05T00:55:16.275Z,1012.51
2022-10-05T00:56:16.871Z,1012.52
2022-10-05T00:57:16.300Z,1012.56
2022-10-05T00:58:16.152Z,1012.51
2022-10-05T00:59:16.304Z,1012.56
2022-10-05T01:00:16.148Z,1012.52
2022-10-05T01:01:16.181Z,1012.54
2022-10-05T01:02:16.478Z,1012.52
2022-10-05T01:03:16.131Z,1012.52
2022-10-05T01:04:16.136Z,1012.49
2022-10-05T01:05:16.078Z,1012.49
2022-10-05T01:06:16.135Z,1012.51
2022-10-05T01:07:17.103Z,1012.49
2022-10-05T01:08:16.045Z,1012.51
2022-10-05T01:09:16.035Z,1012.51
2022-10-05T01:10:15.998Z,1012.53
2022-10-05T01:11:16.021Z,1012.52
2022-10-05T01:12:17.136Z,1012.53
2022-10-05T01:13:15.935Z,1012.55
2022-10-05T01:14:15.963Z,1012.55
2022-10-05T01:15:15.920Z,1012.51
2022-10-05T01:16:15.981Z,1012.51
2022-10-05T01:17:15.924Z,1012.49
2022-10-05T01:18:16.141Z,1012.48
2022-10-05T01:19:16.316Z,1012.42
2022-10-05T01:20:15.874Z,1012.41
2022-10-05T01:21:15.881Z,1012.49
2022-10-05T01:22:15.865Z,1012.52
2022-10-05T01:23:15.819Z,1012.49
2022-10-05T01:24:16.191Z,1012.48
2022-10-05T01:25:15.907Z,1012.48
2022-10-05T01:26:15.935Z,1012.50
2022-10-05T01:27:15.809Z,1012.51
2022-10-05T01:28:15.819Z,1012.46
2022-10-05T01:29:15.805Z,1012.49
2022-10-05T01:30:16.427Z,1012.51
2022-10-05T01:31:15.797Z,1012.50
2022-10-05T01:32:15.742Z,1012.46
2022-10-05T01:33:15.716Z,1012.45
2022-10-05T01:34:15.737Z,1012.45
2022-10-05T01:35:15.808Z,1012.48
2022-10-05T01:36:15.679Z,1012.49
2022-10-05T01:37:15.670Z,1012.47
2022-10-05T01:38:15.617Z,1012.46
2022-10-05T01:39:15.606Z,1012.39
2022-10-05T01:40:15.594Z,1012.37
2022-10-05T01:41:15.658Z,1012.41
2022-10-05T01:42:15.590Z,1012.40
2022-10-05T01:43:15.555Z,1012.32
2022-10-05T01:44:15.878Z,1012.31
2022-10-05T01:45:15.959Z,1012.27
2022-10-05T01:46:15.664Z,1012.30
2022-10-05T01:47:15.519Z,1012.30
2022-10-05T01:48:16.310Z,1012.28
2022-10-05T01:49:15.603Z,1012.27
2022-10-05T01:50:16.474Z,1012.30
2022-10-05T01:51:15.703Z,1012.25
2022-10-05T01:52:15.446Z,1012.24
2022-10-05T01:53:15.454Z,1012.25
2022-10-05T01:54:15.411Z,1012.23
2022-10-05T01:55:15.420Z,1012.23
2022-10-05T01:56:16.355Z,1012.19
2022-10-05T01:57:15.400Z,1012.24
2022-10-05T01:58:15.376Z,1012.18
2022-10-05T01:59:15.592Z,1012.19
2022-10-05T02:00:15.364Z,1012.21
2022-10-05T02:01:15.404Z,1012.19
2022-10-05T02:02:15.541Z,1012.16
2022-10-05T02:03:16.332Z,1012.13
2022-10-05T02:04:30.997Z,1012.15
2022-10-05T02:05:16.303Z,1012.15
2022-10-05T02:06:15.299Z,1012.15
2022-10-05T02:07:15.340Z,1012.12
2022-10-05T02:08:15.337Z,1012.15
2022-10-05T02:09:15.261Z,1012.15
2022-10-05T02:10:15.295Z,1012.10
2022-10-05T02:11:15.237Z,1012.14
2022-10-05T02:12:15.174Z,1012.11
2022-10-05T02:13:15.255Z,1012.10
2022-10-05T02:14:15.180Z,1012.02
2022-10-05T02:15:15.899Z,1012.04
2022-10-05T02:16:15.223Z,1012.05
2022-10-05T02:17:15.128Z,1011.98
2022-10-05T02:18:15.219Z,1012.01
2022-10-05T02:19:15.226Z,1011.95
2022-10-05T02:20:15.068Z,1011.95
2022-10-05T02:21:15.061Z,1011.89
2022-10-05T02:22:15.065Z,1011.98
2022-10-05T02:23:15.217Z,1011.87
2022-10-05T02:24:15.050Z,1011.90
2022-10-05T02:25:15.036Z,1011.92
2022-10-05T02:26:15.025Z,1011.89
2022-10-05T02:27:15.020Z,1011.91
2022-10-05T02:28:16.519Z,1011.84
2022-10-05T02:29:14.985Z,1011.81
2022-10-05T02:30:16.736Z,1011.79
2022-10-05T02:31:15.033Z,1011.77
2022-10-05T02:32:15.034Z,1011.72
2022-10-05T02:33:15.468Z,1011.73
2022-10-05T02:34:15.052Z,1011.74
2022-10-05T02:35:15.076Z,1011.74
2022-10-05T02:36:15.729Z,1011.73
2022-10-05T02:37:14.882Z,1011.72
2022-10-05T02:38:15.071Z,1011.68
2022-10-05T02:39:14.868Z,1011.71
2022-10-05T02:40:14.811Z,1011.69
2022-10-05T02:41:14.848Z,1011.66
2022-10-05T02:42:14.840Z,1011.66
2022-10-05T02:43:14.803Z,1011.61
2022-10-05T02:44:14.818Z,1011.61
2022-10-05T02:45:14.787Z,1011.61
2022-10-05T02:46:14.782Z,1011.61
2022-10-05T02:47:15.710Z,1011.68
2022-10-05T02:48:14.710Z,1011.68
2022-10-05T02:49:14.893Z,1011.74
2022-10-05T02:50:14.722Z,1011.80
2022-10-05T02:51:14.661Z,1011.78
2022-10-05T02:52:14.682Z,1011.79
2022-10-05T02:53:14.643Z,1011.78
2022-10-05T02:54:14.705Z,1011.76
2022-10-05T02:55:14.677Z,1011.75
2022-10-05T02:56:14.791Z,1011.77
2022-10-05T02:57:14.648Z,1011.76
2022-10-05T02:58:14.866Z,1011.76
2022-10-05T02:59:14.607Z,1011.77
2022-10-05T03:00:14.706Z,1011.74
2022-10-05T03:01:14.643Z,1011.73
2022-10-05T03:02:14.929Z,1011.71
2022-10-05T03:03:14.546Z,1011.69
2022-10-05T03:04:14.486Z,1011.69
2022-10-05T03:05:14.495Z,1011.76
2022-10-05T03:06:15.246Z,1011.79
2022-10-05T03:07:15.458Z,1011.77
2022-10-05T03:08:14.447Z,1011.74
2022-10-05T03:09:14.536Z,1011.72
2022-10-05T03:10:14.519Z,1011.74
2022-10-05T03:11:14.463Z,1011.72
2022-10-05T03:12:14.401Z,1011.73
2022-10-05T03:13:14.438Z,1011.68
2022-10-05T03:14:14.366Z,1011.68
2022-10-05T03:15:14.392Z,1011.66
2022-10-05T03:16:14.473Z,1011.59
2022-10-05T03:17:14.439Z,1011.55
2022-10-05T03:18:14.600Z,1011.51
2022-10-05T03:19:15.089Z,1011.49
2022-10-05T03:20:14.324Z,1011.55
2022-10-05T03:21:14.318Z,1011.53
2022-10-05T03:22:14.253Z,1011.51
2022-10-05T03:23:14.260Z,1011.54
2022-10-05T03:24:14.250Z,1011.48
2022-10-05T03:25:14.222Z,1011.48
2022-10-05T03:26:15.030Z,1011.46
2022-10-05T03:27:14.215Z,1011.47
2022-10-05T03:28:14.262Z,1011.47
2022-10-05T03:29:14.153Z,1011.48
2022-10-05T03:30:15.662Z,1011.42
2022-10-05T03:31:14.315Z,1011.41
2022-10-05T03:32:14.400Z,1011.35
2022-10-05T03:33:14.158Z,1011.40
2022-10-05T03:34:14.091Z,1011.38
2022-10-05T03:35:14.074Z,1011.42
2022-10-05T03:36:14.171Z,1011.42
2022-10-05T03:37:14.167Z,1011.46
2022-10-05T03:38:14.075Z,1011.52
2022-10-05T03:39:14.156Z,1011.50
2022-10-05T03:40:14.055Z,1011.46
2022-10-05T03:41:14.487Z,1011.41
2022-10-05T03:42:14.063Z,1011.43
2022-10-05T03:43:14.002Z,1011.37
2022-10-05T03:44:14.068Z,1011.37
2022-10-05T03:45:13.993Z,1011.38
2022-10-05T03:46:14.029Z,1011.38
2022-10-05T03:47:13.956Z,1011.31
2022-10-05T03:48:14.014Z,1011.30
2022-10-05T03:49:13.978Z,1011.27
2022-10-05T03:50:13.934Z,1011.30
2022-10-05T03:51:13.917Z,1011.30
2022-10-05T03:52:14.216Z,1011.31
2022-10-05T03:53:13.859Z,1011.32
2022-10-05T03:54:13.845Z,1011.35
2022-10-05T03:55:13.844Z,1011.38
2022-10-05T03:56:13.803Z,1011.34
2022-10-05T03:57:13.850Z,1011.34
2022-10-05T03:58:14.074Z,1011.26
2022-10-05T03:59:13.818Z,1011.36
2022-10-05T04:00:13.778Z,1011.36
2022-10-05T04:01:13.799Z,1011.36
2022-10-05T04:02:13.761Z,1011.36
2022-10-05T04:03:13.800Z,1011.31
2022-10-05T04:04:13.687Z,1011.34
2022-10-05T04:05:13.760Z,1011.34
2022-10-05T04:06:13.672Z,1011.30
2022-10-05T04:07:13.667Z,1011.29
2022-10-05T04:08:13.719Z,1011.34
2022-10-05T04:09:13.659Z,1011.31
2022-10-05T04:10:14.899Z,1011.28
2022-10-05T04:11:14.799Z,1011.24
2022-10-05T04:12:13.604Z,1011.29
2022-10-05T04:13:13.653Z,1011.31
2022-10-05T04:14:13.628Z,1011.31
2022-10-05T04:15:18.575Z,1011.28
2022-10-05T04:16:14.696Z,1011.27
2022-10-05T04:17:14.733Z,1011.24
2022-10-05T04:18:13.579Z,1011.17
2022-10-05T04:19:13.550Z,1011.19
2022-10-05T04:20:13.524Z,1011.20
2022-10-05T04:21:13.691Z,1011.17
2022-10-05T04:22:13.554Z,1011.17
2022-10-05T04:23:13.483Z,1011.19
2022-10-05T04:24:13.495Z,1011.10
2022-10-05T04:25:13.512Z,1011.08
2022-10-05T04:26:14.379Z,1011.08
2022-10-05T04:27:13.512Z,1011.01
2022-10-05T04:28:14.222Z,1010.96
2022-10-05T04:29:13.442Z,1010.91
2022-10-05T04:30:13.404Z,1010.94
2022-10-05T04:31:14.442Z,1010.91
2022-10-05T04:32:13.414Z,1010.90
2022-10-05T04:33:13.372Z,1010.82
2022-10-05T04:34:13.333Z,1010.87
2022-10-05T04:35:13.506Z,1010.84
2022-10-05T04:36:13.417Z,1010.81
2022-10-05T04:37:13.292Z,1010.77
2022-10-05T04:38:13.315Z,1010.74
2022-10-05T04:39:13.299Z,1010.77
2022-10-05T04:40:13.290Z,1010.79
2022-10-05T04:41:13.275Z,1010.79
2022-10-05T04:42:13.257Z,1010.73
2022-10-05T04:43:13.255Z,1010.70
2022-10-05T04:44:13.185Z,1010.72
2022-10-05T04:45:13.184Z,1010.68
2022-10-05T04:46:13.250Z,1010.69
2022-10-05T04:47:13.289Z,1010.74
2022-10-05T04:48:14.322Z,1010.73
2022-10-05T04:49:14.230Z,1010.78
2022-10-05T04:50:13.288Z,1010.80
2022-10-05T04:51:13.141Z,1010.82
2022-10-05T04:52:13.104Z,1010.85
2022-10-05T04:53:13.063Z,1010.84
2022-10-05T04:54:13.052Z,1010.81
2022-10-05T04:55:14.170Z,1010.87
2022-10-05T04:56:13.077Z,1010.82
2022-10-05T04:57:13.250Z,1010.83
2022-10-05T04:58:13.000Z,1010.83
2022-10-05T04:59:13.780Z,1010.87
2022-10-05T05:00:13.321Z,1010.91
2022-10-05T05:01:13.144Z,1010.90
2022-10-05T05:02:13.000Z,1010.98
2022-10-05T05:03:12.971Z,1010.99
2022-10-05T05:04:13.075Z,1010.97
2022-10-05T05:05:12.952Z,1010.93
2022-10-05T05:06:17.376Z,1010.92
2022-10-05T05:07:13.982Z,1010.88
2022-10-05T05:08:12.856Z,1010.92
2022-10-05T05:09:12.882Z,1010.91
2022-10-05T05:10:12.925Z,1010.93
2022-10-05T05:11:16.327Z,1010.93
2022-10-05T05:12:13.885Z,1010.93
2022-10-05T05:13:12.891Z,1010.94
2022-10-05T05:14:13.874Z,1010.97
2022-10-05T05:15:12.797Z,1010.95
2022-10-05T05:16:13.007Z,1010.97
2022-10-05T05:17:13.370Z,1010.97
2022-10-05T05:18:12.756Z,1010.94
2022-10-05T05:19:12.715Z,1010.91
2022-10-05T05:20:12.704Z,1010.95
2022-10-05T05:21:14.142Z,1010.96
2022-10-05T05:22:12.698Z,1010.99
2022-10-05T05:23:12.734Z,1011.04
2022-10-05T05:24:12.684Z,1011.00
2022-10-05T05:25:12.636Z,1011.03
2022-10-05T05:26:12.768Z,1011.01
2022-10-05T05:27:12.637Z,1010.98
2022-10-05T05:28:12.664Z,1010.96
2022-10-05T05:29:12.634Z,1010.98
2022-10-05T05:30:12.614Z,1010.96
2022-10-05T05:31:12.630Z,1010.96
2022-10-05T05:32:12.551Z,1010.93
2022-10-05T05:33:12.576Z,1010.89
2022-10-05T05:34:13.488Z,1010.88
2022-10-05T05:35:13.397Z,1010.88
2022-10-05T05:36:12.587Z,1010.96
2022-10-05T05:37:12.641Z,1010.96
2022-10-05T05:38:12.498Z,1010.97
2022-10-05T05:39:13.498Z,1010.96
2022-10-05T05:40:12.818Z,1010.95
2022-10-05T05:41:12.462Z,1010.97
2022-10-05T05:42:12.472Z,1010.98
2022-10-05T05:43:12.430Z,1010.99
2022-10-05T05:44:12.400Z,1010.97
2022-10-05T05:45:12.494Z,1011.04
2022-10-05T05:46:12.398Z,1011.03
2022-10-05T05:47:13.765Z,1011.06
2022-10-05T05:48:12.379Z,1011.04
2022-10-05T05:49:12.343Z,1011.06
2022-10-05T05:50:12.411Z,1011.10
2022-10-05T05:51:12.332Z,1011.09
2022-10-05T05:52:13.295Z,1011.13
2022-10-05T05:53:12.687Z,1011.14
2022-10-05T05:54:12.303Z,1011.14
2022-10-05T05:55:12.323Z,1011.15
2022-10-05T05:56:12.291Z,1011.12
2022-10-05T05:57:12.234Z,1011.16
2022-10-05T05:58:12.285Z,1011.14
2022-10-05T05:59:12.214Z,1011.15
2022-10-05T06:00:12.182Z,1011.16
2022-10-05T06:01:30.571Z,1011.16
2022-10-05T06:02:13.239Z,1011.14
2022-10-05T06:03:12.227Z,1011.15
2022-10-05T06:04:12.127Z,1011.07
2022-10-05T06:05:12.325Z,1011.05
2022-10-05T06:06:12.166Z,1011.00
2022-10-05T06:07:12.116Z,1010.99
2022-10-05T06:08:12.107Z,1010.99
2022-10-05T06:09:12.054Z,1011.09
2022-10-05T06:10:12.083Z,1011.13
2022-10-05T06:11:12.052Z,1011.19
2022-10-05T06:12:12.019Z,1011.15
2022-10-05T06:13:12.006Z,1011.15
2022-10-05T06:14:12.044Z,1011.07
2022-10-05T06:15:12.016Z,1011.05
2022-10-05T06:16:12.090Z,1011.03
2022-10-05T06:17:11.999Z,1011.06
2022-10-05T06:18:12.847Z,1011.05
2022-10-05T06:19:11.958Z,1011.02
2022-10-05T06:20:11.937Z,1011.03
2022-10-05T06:21:11.977Z,1011.07
2022-10-05T06:22:11.955Z,1011.05
2022-10-05T06:23:12.007Z,1011.05
2022-10-05T06:24:11.908Z,1011.04
2022-10-05T06:25:11.909Z,1011.09
2022-10-05T06:26:11.849Z,1011.05
2022-10-05T06:27:11.836Z,1011.09
2022-10-05T06:28:11.901Z,1011.08
2022-10-05T06:29:11.836Z,1011.05
2022-10-05T06:30:12.717Z,1011.05
2022-10-05T06:31:11.854Z,1011.07
2022-10-05T06:32:11.816Z,1011.11
2022-10-05T06:33:11.781Z,1011.14
2022-10-05T06:34:11.802Z,1011.15
2022-10-05T06:35:11.761Z,1011.14
2022-10-05T06:36:11.700Z,1011.15
2022-10-05T06:37:11.820Z,1011.13
2022-10-05T06:38:11.701Z,1011.15
2022-10-05T06:39:12.145Z,1011.14
2022-10-05T06:40:11.722Z,1011.19
2022-10-05T06:41:11.661Z,1011.18
2022-10-05T06:42:11.672Z,1011.18
2022-10-05T06:43:11.643Z,1011.20
2022-10-05T06:44:11.590Z,1011.18
2022-10-05T06:45:11.644Z,1011.13
2022-10-05T06:46:11.643Z,1011.17
2022-10-05T06:47:11.559Z,1011.13
2022-10-05T06:48:11.562Z,1011.16
2022-10-05T06:49:11.533Z,1011.15
2022-10-05T06:50:11.618Z,1011.12
2022-10-05T06:51:11.556Z,1011.13
2022-10-05T06:52:11.514Z,1011.18
2022-10-05T06:53:11.496Z,1011.20
2022-10-05T06:54:11.546Z,1011.11
2022-10-05T06:55:14.191Z,1011.16
2022-10-05T06:56:11.449Z,1011.16
2022-10-05T06:57:11.467Z,1011.13
2022-10-05T06:58:11.516Z,1011.20
2022-10-05T06:59:11.455Z,1011.16
2022-10-05T07:00:11.416Z,1011.15
2022-10-05T07:01:11.407Z,1011.16
2022-10-05T07:02:11.414Z,1011.16
2022-10-05T07:03:11.679Z,1011.14
2022-10-05T07:04:11.372Z,1011.14
2022-10-05T07:05:11.405Z,1011.16
2022-10-05T07:06:11.316Z,1011.21
2022-10-05T07:07:11.357Z,1011.17
2022-10-05T07:08:11.822Z,1011.19
2022-10-05T07:09:12.558Z,1011.15
2022-10-05T07:10:11.309Z,1011.20
2022-10-05T07:11:11.293Z,1011.17
2022-10-05T07:12:11.243Z,1011.09
2022-10-05T07:13:11.259Z,1011.15
2022-10-05T07:14:11.272Z,1011.12
2022-10-05T07:15:11.234Z,1011.16
2022-10-05T07:16:11.209Z,1011.11
2022-10-05T07:17:11.288Z,1011.17
2022-10-05T07:18:11.162Z,1011.13
2022-10-05T07:19:11.137Z,1011.13
2022-10-05T07:20:11.185Z,1011.11
2022-10-05T07:21:11.143Z,1011.08
2022-10-05T07:22:11.635Z,1011.13
2022-10-05T07:23:11.151Z,1011.11
2022-10-05T07:24:11.092Z,1011.06
2022-10-05T07:25:11.081Z,1011.05
2022-10-05T07:26:12.021Z,1011.07
2022-10-05T07:27:11.083Z,1011.03
2022-10-05T07:28:12.321Z,1011.09
2022-10-05T07:29:11.563Z,1011.06
2022-10-05T07:30:11.037Z,1011.06
2022-10-05T07:31:11.109Z,1011.08
2022-10-05T07:32:11.923Z,1011.07
2022-10-05T07:33:11.015Z,1011.10
2022-10-05T07:34:12.204Z,1011.14
2022-10-05T07:35:10.937Z,1011.10
2022-10-05T07:36:10.941Z,1011.19
2022-10-05T07:37:10.902Z,1011.15
2022-10-05T07:38:10.964Z,1011.09
2022-10-05T07:39:10.875Z,1011.08
2022-10-05T07:40:10.907Z,1011.06
2022-10-05T07:41:10.860Z,1011.07
2022-10-05T07:42:10.915Z,1011.09
2022-10-05T07:43:10.895Z,1011.12
2022-10-05T07:44:12.980Z,1011.11
2022-10-05T07:45:10.835Z,1011.02
2022-10-05T07:46:10.851Z,1011.03
2022-10-05T07:47:10.977Z,1011.03
2022-10-05T07:48:10.790Z,1011.08
2022-10-05T07:49:10.772Z,1011.09
2022-10-05T07:50:10.729Z,1011.07
2022-10-05T07:51:10.718Z,1011.13
2022-10-05T07:52:10.707Z,1011.12
2022-10-05T07:53:10.711Z,1011.11
2022-10-05T07:54:10.690Z,1011.10
2022-10-05T07:55:10.917Z,1011.12
2022-10-05T07:56:10.680Z,1011.10
2022-10-05T07:57:10.667Z,1011.09
2022-10-05T07:58:10.680Z,1011.10
2022-10-05T07:59:11.861Z,1011.09
2022-10-05T08:00:10.642Z,1011.12
2022-10-05T08:01:10.585Z,1011.09
2022-10-05T08:02:10.751Z,1011.02
2022-10-05T08:03:10.682Z,1011.07
2022-10-05T08:04:10.604Z,1011.08
2022-10-05T08:05:10.573Z,1011.02
2022-10-05T08:06:10.562Z,1011.07
2022-10-05T08:07:10.565Z,1011.09
2022-10-05T08:08:10.991Z,1011.09
2022-10-05T08:09:10.515Z,1011.10
2022-10-05T08:10:10.471Z,1011.12
2022-10-05T08:11:10.471Z,1011.14
2022-10-05T08:12:10.505Z,1011.04
2022-10-05T08:13:10.462Z,1011.06
2022-10-05T08:14:10.578Z,1011.03
2022-10-05T08:15:10.420Z,1011.06
2022-10-05T08:16:10.535Z,1011.04
2022-10-05T08:17:10.473Z,1011.04
2022-10-05T08:18:10.386Z,1011.07
2022-10-05T08:19:10.858Z,1011.04
2022-10-05T08:20:10.416Z,1011.08
2022-10-05T08:21:10.323Z,1011.05
2022-10-05T08:22:10.312Z,1011.03
2022-10-05T08:23:10.315Z,1011.06
2022-10-05T08:24:11.544Z,1011.09
2022-10-05T08:25:11.278Z,1011.06
2022-10-05T08:26:10.489Z,1010.99
2022-10-05T08:27:10.257Z,1011.06
2022-10-05T08:28:10.331Z,1011.05
2022-10-05T08:29:13.653Z,1011.08
2022-10-05T08:30:10.306Z,1011.06
2022-10-05T08:31:10.228Z,1011.05
2022-10-05T08:32:11.251Z,1011.05
2022-10-05T08:33:10.167Z,1011.05
2022-10-05T08:34:10.167Z,1011.07
2022-10-05T08:35:10.202Z,1011.12
2022-10-05T08:36:10.571Z,1011.11
2022-10-05T08:37:10.439Z,1011.12
2022-10-05T08:38:10.255Z,1011.17
2022-10-05T08:39:10.159Z,1011.14
2022-10-05T08:40:10.061Z,1011.14
2022-10-05T08:41:10.090Z,1011.20
2022-10-05T08:42:10.059Z,1011.12
2022-10-05T08:43:10.080Z,1011.19
2022-10-05T08:44:10.100Z,1011.17
2022-10-05T08:45:11.039Z,1011.19
2022-10-05T08:46:10.170Z,1011.20
2022-10-05T08:47:09.973Z,1011.16
2022-10-05T08:48:09.962Z,1011.21
2022-10-05T08:49:09.994Z,1011.20
2022-10-05T08:50:09.984Z,1011.21
2022-10-05T08:51:10.128Z,1011.20
2022-10-05T08:52:10.002Z,1011.17
2022-10-05T08:53:09.896Z,1011.25
2022-10-05T08:54:09.914Z,1011.15
2022-10-05T08:55:09.918Z,1011.23
2022-10-05T08:56:09.923Z,1011.26
2022-10-05T08:57:10.317Z,1011.30
2022-10-05T08:58:10.796Z,1011.28
2022-10-05T08:59:09.831Z,1011.27
2022-10-05T09:00:10.341Z,1011.22
2022-10-05T09:01:09.823Z,1011.27
2022-10-05T09:02:09.878Z,1011.24
2022-10-05T09:03:09.766Z,1011.25
2022-10-05T09:04:09.779Z,1011.22
2022-10-05T09:05:09.778Z,1011.24
2022-10-05T09:06:09.809Z,1011.21
2022-10-05T09:07:09.730Z,1011.24
2022-10-05T09:08:09.758Z,1011.20
2022-10-05T09:09:09.732Z,1011.20
2022-10-05T09:10:09.851Z,1011.19
2022-10-05T09:11:09.788Z,1011.20
2022-10-05T09:12:09.661Z,1011.22
2022-10-05T09:13:09.666Z,1011.25
2022-10-05T09:14:09.654Z,1011.19
2022-10-05T09:15:26.557Z,1011.22
2022-10-05T09:16:10.997Z,1011.24
2022-10-05T09:17:09.610Z,1011.25
2022-10-05T09:18:09.594Z,1011.21
2022-10-05T09:19:09.584Z,1011.23
2022-10-05T09:20:09.621Z,1011.22
2022-10-05T09:21:09.524Z,1011.26
2022-10-05T09:22:09.534Z,1011.14
2022-10-05T09:23:09.503Z,1011.15
2022-10-05T09:24:09.506Z,1011.18
2022-10-05T09:25:09.503Z,1011.12
2022-10-05T09:26:09.486Z,1011.11
2022-10-05T09:27:09.504Z,1011.12
2022-10-05T09:28:10.470Z,1011.13
2022-10-05T09:29:10.386Z,1011.13
2022-10-05T09:30:09.446Z,1011.03
2022-10-05T09:31:09.450Z,1011.05
2022-10-05T09:32:13.026Z,1011.05
2022-10-05T09:33:10.436Z,1011.07
2022-10-05T09:34:09.387Z,1011.00
2022-10-05T09:35:09.338Z,1011.13
2022-10-05T09:36:10.229Z,1011.11
2022-10-05T09:37:09.440Z,1011.09
2022-10-05T09:38:09.318Z,1011.05
2022-10-05T09:39:09.299Z,1011.10
2022-10-05T09:40:09.361Z,1011.12
2022-10-05T09:41:09.770Z,1011.05
2022-10-05T09:42:09.262Z,1011.11
2022-10-05T09:43:09.381Z,1011.12
2022-10-05T09:44:09.259Z,1011.14
2022-10-05T09:45:09.201Z,1011.10
2022-10-05T09:46:09.288Z,1011.17
2022-10-05T09:47:09.253Z,1011.13
2022-10-05T09:48:09.371Z,1011.17
2022-10-05T09:49:09.223Z,1011.18
2022-10-05T09:50:09.148Z,1011.08
2022-10-05T09:51:09.164Z,1011.09
2022-10-05T09:52:09.156Z,1011.15
2022-10-05T09:53:09.140Z,1011.11
2022-10-05T09:54:09.161Z,1011.09
2022-10-05T09:55:09.092Z,1011.08
2022-10-05T09:56:09.216Z,1011.14
2022-10-05T09:57:09.074Z,1011.13
2022-10-05T09:58:09.053Z,1011.10
2022-10-05T09:59:09.063Z,1011.10
2022-10-05T10:00:09.272Z,1011.12
2022-10-05T10:01:15.992Z,1011.14
2022-10-05T10:02:10.359Z,1011.11
2022-10-05T10:03:09.097Z,1011.11
2022-10-05T10:04:09.066Z,1011.16
2022-10-05T10:05:09.018Z,1011.14
2022-10-05T10:06:09.186Z,1011.15
2022-10-05T10:07:08.938Z,1011.09
2022-10-05T10:08:09.710Z,1011.08
2022-10-05T10:09:09.008Z,1011.07
2022-10-05T10:10:08.954Z,1011.11
2022-10-05T10:11:08.893Z,1011.14
2022-10-05T10:12:08.901Z,1011.06
2022-10-05T10:13:09.730Z,1011.04
2022-10-05T10:14:09.648Z,1011.16
2022-10-05T10:15:08.971Z,1011.11
2022-10-05T10:16:08.914Z,1011.12
2022-10-05T10:17:08.791Z,1011.10
2022-10-05T10:18:08.770Z,1011.09
2022-10-05T10:19:08.803Z,1011.16
2022-10-05T10:20:09.651Z,1011.14
2022-10-05T10:21:08.772Z,1011.03
2022-10-05T10:22:08.731Z,1011.08
2022-10-05T10:23:08.711Z,1011.10
2022-10-05T10:24:08.723Z,1011.07
2022-10-05T10:25:08.759Z,1011.11
2022-10-05T10:26:08.728Z,1011.08
2022-10-05T10:27:08.746Z,1011.10
2022-10-05T10:28:08.683Z,1011.10
2022-10-05T10:29:08.675Z,1011.11
2022-10-05T10:30:08.695Z,1011.12
2022-10-05T10:31:08.774Z,1011.11
2022-10-05T10:32:09.456Z,1011.13
2022-10-05T10:33:08.671Z,1011.09
2022-10-05T10:34:08.559Z,1011.08
2022-10-05T10:35:08.605Z,1011.16
2022-10-05T10:36:08.559Z,1011.04
2022-10-05T10:37:08.607Z,1011.01
2022-10-05T10:38:08.551Z,1011.08
2022-10-05T10:39:08.527Z,1011.01
2022-10-05T10:40:08.531Z,1010.95
2022-10-05T10:41:08.468Z,1011.03
2022-10-05T10:42:08.491Z,1011.02
2022-10-05T10:43:08.529Z,1011.05
2022-10-05T10:44:08.458Z,1011.04
2022-10-05T10:45:09.231Z,1011.05
2022-10-05T10:46:08.474Z,1010.88
2022-10-05T10:47:08.428Z,1011.04
2022-10-05T10:48:08.420Z,1010.98
2022-10-05T10:49:08.405Z,1010.98
2022-10-05T10:50:08.364Z,1010.98
2022-10-05T10:51:08.343Z,1010.95
2022-10-05T10:52:08.947Z,1010.92
2022-10-05T10:53:08.352Z,1010.95
2022-10-05T10:54:08.355Z,1010.98
2022-10-05T10:55:08.312Z,1010.92
2022-10-05T10:56:08.340Z,1010.98
2022-10-05T10:57:08.293Z,1010.93
2022-10-05T10:58:11.242Z,1010.89
2022-10-05T10:59:09.346Z,1010.91
2022-10-05T11:00:08.223Z,1010.90
2022-10-05T11:01:08.201Z,1010.93
2022-10-05T11:02:08.299Z,1010.95
2022-10-05T11:03:08.339Z,1010.94
2022-10-05T11:04:08.279Z,1010.93
2022-10-05T11:05:08.203Z,1010.95
2022-10-05T11:06:08.197Z,1010.95
2022-10-05T11:07:08.137Z,1010.94
2022-10-05T11:08:08.126Z,1010.93
2022-10-05T11:09:08.236Z,1010.93
2022-10-05T11:10:08.100Z,1010.93
2022-10-05T11:11:08.077Z,1010.89
2022-10-05T11:12:08.137Z,1010.90
2022-10-05T11:13:08.039Z,1010.91
2022-10-05T11:14:08.421Z,1010.87
2022-10-05T11:15:08.085Z,1010.87
2022-10-05T11:17:08.004Z,1010.98
2022-10-05T11:18:07.999Z,1010.92
2022-10-05T11:19:08.047Z,1010.90
2022-10-05T11:20:08.079Z,1010.83
2022-10-05T11:21:07.973Z,1010.86
2022-10-05T11:22:07.958Z,1010.81
2022-10-05T11:23:08.020Z,1010.83
2022-10-05T11:24:08.099Z,1010.72
2022-10-05T11:25:07.912Z,1010.84
2022-10-05T11:26:07.882Z,1010.85
2022-10-05T11:27:07.908Z,1010.79
2022-10-05T11:28:07.959Z,1010.78
2022-10-05T11:29:07.964Z,1010.84
2022-10-05T11:30:07.843Z,1010.80
2022-10-05T11:31:07.916Z,1010.78
2022-10-05T11:32:07.802Z,1010.79
2022-10-05T11:33:07.808Z,1010.79
2022-10-05T11:34:07.774Z,1010.81
2022-10-05T11:35:07.796Z,1010.76
2022-10-05T11:36:07.747Z,1010.77
2022-10-05T11:37:07.779Z,1010.76
2022-10-05T11:38:07.845Z,1010.70
2022-10-05T11:39:07.735Z,1010.66
2022-10-05T11:40:07.727Z,1010.70
2022-10-05T11:41:07.699Z,1010.64
2022-10-05T11:42:07.698Z,1010.66
2022-10-05T11:43:08.780Z,1010.69
2022-10-05T11:44:07.650Z,1010.65
2022-10-05T11:45:07.679Z,1010.66
2022-10-05T11:46:07.731Z,1010.60
2022-10-05T11:47:07.603Z,1010.61
2022-10-05T11:48:08.809Z,1010.65
2022-10-05T11:49:08.720Z,1010.68
2022-10-05T11:50:07.603Z,1010.62
2022-10-05T11:51:07.573Z,1010.57
2022-10-05T11:52:07.570Z,1010.59
2022-10-05T11:53:07.547Z,1010.60
2022-10-05T11:54:07.513Z,1010.59
2022-10-05T11:55:12.056Z,1010.47
2022-10-05T11:56:08.582Z,1010.50
2022-10-05T11:57:07.584Z,1010.52
2022-10-05T11:58:07.534Z,1010.49
2022-10-05T11:59:07.474Z,1010.50
2022-10-05T12:00:07.454Z,1010.48
2022-10-05T12:01:07.447Z,1010.44
2022-10-05T12:02:07.484Z,1010.44
2022-10-05T12:03:07.428Z,1010.44
2022-10-05T12:04:07.522Z,1010.43
2022-10-05T12:05:07.389Z,1010.35
2022-10-05T12:06:07.403Z,1010.40